Leasburg, Missouri
Current Conditions -  °F | °C
As of 12:17 PM on Friday 19 Dec 2014 (Local Time) from KVIH Reporting Station
Overcast Overcast  
Wind Chill: 30°   Ceiling: 800
Heat Index: 35°   Visibility: 10mi
Dew Point: 31°   Wind: 6mph
Humidity: 85%   Direction: 170°S
Pressure: 30.25"   Gusts: NA
Location:  38.09°N, 91.3°W
Report Text: KVIH 191817Z AUTO 17005KT 10SM OVC008 02/M01 A3025 RMK AO2 CIG 008V011 T00171006
Loading
Personal Weather Stations






























Interactive Weather Map New forecast layout! Learn more

10-Day Weather Forecast

Advertisements
Track Severe Weather on mobile